Time;durP1;ratioP1;P1;durP2;ratioP2;P2;SDS_P1;SDS_P2;PMS_P1;PMS_P2;Temp;Humidity;BMP_temperature;BMP_pressure;BME280_temperature;BME280_humidity;BME280_pressure;Samples;Min_cycle;Max_cycle;Signal;HPM_P1;HPM_P2
2021/08/26 00:07:33;;;;;;;19.90;18.40;;;15.70;99.90;;;;;;4955952;28;20428;-70
2021/08/26 00:10:02;;;;;;;20.60;18.93;;;15.60;99.90;;;;;;4955849;28;20507;-69
2021/08/26 00:12:30;;;;;;;20.30;18.70;;;15.60;99.90;;;;;;4955853;29;20452;-70
2021/08/26 00:14:56;;;;;;;21.30;19.53;;;15.60;99.90;;;;;;4955830;28;20484;-70
2021/08/26 00:17:23;;;;;;;20.07;18.47;;;15.50;99.90;;;;;;4955781;29;20491;-70
2021/08/26 00:19:53;;;;;;;21.13;19.50;;;15.50;99.90;;;;;;4955582;28;20453;-70
2021/08/26 00:22:19;;;;;;;20.53;18.93;;;15.50;99.90;;;;;;4955774;28;20610;-68
2021/08/26 00:24:46;;;;;;;19.73;18.20;;;15.40;99.90;;;;;;4955723;29;20488;-69
2021/08/26 00:27:13;;;;;;;20.30;18.80;;;15.40;99.90;;;;;;4955229;28;20969;-68
2021/08/26 00:29:40;;;;;;;19.47;18.17;;;15.40;99.90;;;;;;4955626;28;20452;-68
2021/08/26 00:32:08;;;;;;;21.57;19.83;;;15.30;99.90;;;;;;4955400;28;20452;-68
2021/08/26 00:34:34;;;;;;;20.23;18.70;;;15.30;99.90;;;;;;4955215;28;20452;-69
2021/08/26 00:37:02;;;;;;;20.80;19.10;;;15.30;99.90;;;;;;4954958;28;20511;-67
2021/08/26 00:39:29;;;;;;;18.33;16.93;;;15.20;99.90;;;;;;4955011;28;20471;-68
2021/08/26 00:41:56;;;;;;;20.23;18.70;;;15.20;99.90;;;;;;4954976;28;20472;-68
2021/08/26 00:44:23;;;;;;;20.97;19.27;;;15.20;99.90;;;;;;4955082;28;20815;-68
2021/08/26 00:46:50;;;;;;;20.67;19.33;;;15.20;99.90;;;;;;4954951;28;20447;-68
2021/08/26 00:49:18;;;;;;;19.50;18.10;;;15.20;99.90;;;;;;4954840;28;20452;-68
2021/08/26 00:51:45;;;;;;;19.33;18.00;;;15.20;99.90;;;;;;4954776;28;20448;-68
2021/08/26 00:54:14;;;;;;;20.50;19.00;;;15.10;99.90;;;;;;4954729;28;20459;-68
2021/08/26 00:56:41;;;;;;;19.73;18.13;;;15.10;99.90;;;;;;4954587;28;20495;-68
2021/08/26 00:59:09;;;;;;;20.47;18.90;;;15.10;99.90;;;;;;4954967;28;20453;-68
2021/08/26 01:01:45;;;;;;;20.37;18.60;;;15.00;99.90;;;;;;4954705;28;20480;-68
2021/08/26 01:04:20;;;;;;;21.03;19.60;;;14.90;99.90;;;;;;4954845;28;20483;-70
2021/08/26 01:06:57;;;;;;;22.50;20.50;;;14.90;99.90;;;;;;4954935;28;20459;-68
2021/08/26 01:09:32;;;;;;;20.80;19.40;;;14.80;99.90;;;;;;4955076;28;20452;-68
2021/08/26 01:11:59;;;;;;;19.67;18.40;;;14.70;99.90;;;;;;4954762;28;20448;-68
2021/08/26 01:14:27;;;;;;;21.30;19.50;;;14.60;99.90;;;;;;4954863;28;20848;-68
2021/08/26 01:16:54;;;;;;;21.83;20.07;;;14.50;99.90;;;;;;4954700;28;20524;-68
2021/08/26 01:19:20;;;;;;;21.33;19.60;;;14.40;99.90;;;;;;4954745;28;20459;-68
2021/08/26 01:21:47;;;;;;;21.70;20.10;;;14.40;99.90;;;;;;4954631;28;20448;-68
2021/08/26 01:24:17;;;;;;;22.03;20.27;;;14.40;99.90;;;;;;4954648;28;20507;-68
2021/08/26 01:26:49;;;;;;;21.47;19.87;;;14.30;99.90;;;;;;4954611;28;20460;-69
2021/08/26 01:29:16;;;;;;;21.17;19.67;;;14.30;99.90;;;;;;4954582;28;20828;-69
2021/08/26 01:31:44;;;;;;;21.60;20.20;;;14.30;99.90;;;;;;4954331;28;20457;-68
2021/08/26 01:34:11;;;;;;;21.77;20.27;;;14.30;99.90;;;;;;4954638;28;20460;-69
2021/08/26 01:36:38;;;;;;;21.87;20.43;;;14.30;99.90;;;;;;4954424;28;20456;-67
2021/08/26 01:39:08;;;;;;;20.63;19.13;;;14.30;99.90;;;;;;4954361;28;20452;-68
2021/08/26 01:41:43;;;;;;;20.70;19.10;;;14.30;99.90;;;;;;4954378;28;20464;-68
2021/08/26 01:44:12;;;;;;;21.23;19.43;;;14.30;99.90;;;;;;4954487;28;20452;-67
2021/08/26 01:46:39;;;;;;;20.73;19.33;;;14.30;99.90;;;;;;4954274;28;20812;-68
2021/08/26 01:49:05;;;;;;;20.50;19.10;;;14.30;99.90;;;;;;4954384;28;20452;-68
2021/08/26 01:51:33;;;;;;;21.50;19.90;;;14.30;99.90;;;;;;4954051;28;20452;-67
2021/08/26 01:54:01;;;;;;;23.40;21.50;;;14.20;99.90;;;;;;4954104;29;20453;-67
2021/08/26 01:56:27;;;;;;;23.00;21.20;;;14.20;99.90;;;;;;4953996;28;20947;-67
2021/08/26 01:58:54;;;;;;;22.67;21.07;;;14.10;99.90;;;;;;4954205;28;20498;-70
2021/08/26 02:01:22;;;;;;;22.53;20.73;;;14.10;99.90;;;;;;4953800;28;20472;-69
2021/08/26 02:03:49;;;;;;;21.40;19.90;;;14.00;99.90;;;;;;4953710;28;20485;-67
2021/08/26 02:06:15;;;;;;;21.50;19.80;;;14.00;99.90;;;;;;4953786;28;20448;-70
2021/08/26 02:08:42;;;;;;;20.77;19.37;;;14.00;99.90;;;;;;4953714;28;20986;-70
2021/08/26 02:11:09;;;;;;;22.00;20.37;;;13.90;99.90;;;;;;4953954;28;20456;-70
2021/08/26 02:13:35;;;;;;;21.57;20.13;;;13.90;99.90;;;;;;4953817;28;20950;-70
2021/08/26 02:16:02;;;;;;;22.23;20.53;;;13.80;99.90;;;;;;4953568;28;20453;-69
2021/08/26 02:18:30;;;;;;;22.00;20.50;;;13.80;99.90;;;;;;4953386;28;20492;-67
2021/08/26 02:20:57;;;;;;;23.80;21.90;;;13.80;99.90;;;;;;4953486;28;20805;-68
2021/08/26 02:23:23;;;;;;;23.83;21.93;;;13.80;99.90;;;;;;4953150;28;20465;-68
2021/08/26 02:25:50;;;;;;;24.13;22.20;;;13.80;99.90;;;;;;4953584;28;20449;-68
2021/08/26 02:28:17;;;;;;;23.37;21.67;;;13.80;99.90;;;;;;4953281;28;20455;-70
2021/08/26 02:30:44;;;;;;;22.50;20.80;;;13.70;99.90;;;;;;4953354;28;20460;-68
2021/08/26 02:33:11;;;;;;;22.77;21.13;;;13.70;99.90;;;;;;4953513;28;20488;-67
2021/08/26 02:35:39;;;;;;;22.93;19.70;;;13.70;99.90;;;;;;4953508;28;20449;-70
2021/08/26 02:38:05;;;;;;;23.30;21.40;;;13.70;99.90;;;;;;4953323;28;20484;-70
2021/08/26 02:40:32;;;;;;;23.37;21.57;;;13.60;99.90;;;;;;4953210;28;20502;-70
2021/08/26 02:42:59;;;;;;;24.97;23.10;;;13.60;99.90;;;;;;4953182;28;20461;-69
2021/08/26 02:45:26;;;;;;;23.07;21.30;;;13.60;99.90;;;;;;4953187;28;20503;-69
2021/08/26 02:47:52;;;;;;;24.60;22.80;;;13.60;99.90;;;;;;4953299;28;20459;-70
2021/08/26 02:50:19;;;;;;;21.97;20.23;;;13.60;99.90;;;;;;4953124;28;20453;-69
2021/08/26 02:52:47;;;;;;;23.87;21.40;;;13.60;99.90;;;;;;4952969;28;20515;-70
2021/08/26 02:55:14;;;;;;;23.87;21.93;;;13.60;99.90;;;;;;4952980;28;20461;-69
2021/08/26 02:57:40;;;;;;;23.80;22.13;;;13.60;99.90;;;;;;4952906;28;21056;-69
2021/08/26 03:00:08;;;;;;;24.87;22.73;;;13.60;99.90;;;;;;4953109;28;20456;-68
2021/08/26 03:02:35;;;;;;;23.83;22.00;;;13.70;99.90;;;;;;4952760;28;20483;-69
2021/08/26 03:05:02;;;;;;;25.10;23.30;;;13.70;99.90;;;;;;4952832;28;20914;-69
2021/08/26 03:07:29;;;;;;;24.77;22.87;;;13.70;99.90;;;;;;4952750;28;20515;-69
2021/08/26 03:09:57;;;;;;;25.17;22.83;;;13.70;99.90;;;;;;4952934;28;20479;-69
2021/08/26 03:12:23;;;;;;;24.83;22.87;;;13.70;99.90;;;;;;4952912;28;20460;-69
2021/08/26 03:14:50;;;;;;;24.77;22.93;;;13.70;99.90;;;;;;4952787;28;20536;-70
2021/08/26 03:17:17;;;;;;;24.30;22.40;;;13.70;99.90;;;;;;4952511;28;20496;-70
2021/08/26 03:19:43;;;;;;;25.27;22.97;;;13.80;99.90;;;;;;4952512;28;20452;-69
2021/08/26 03:22:10;;;;;;;23.47;21.40;;;13.80;99.90;;;;;;4952704;28;20788;-69
2021/08/26 03:24:37;;;;;;;25.13;22.97;;;13.80;99.90;;;;;;4952731;28;20512;-70
2021/08/26 03:27:05;;;;;;;26.17;24.17;;;13.90;99.90;;;;;;4952524;28;20947;-68
2021/08/26 03:29:32;;;;;;;27.07;24.70;;;13.80;99.90;;;;;;4952411;28;20460;-68
2021/08/26 03:31:59;;;;;;;24.80;23.10;;;13.90;99.90;;;;;;4952279;28;20455;-68
2021/08/26 03:34:25;;;;;;;25.27;23.40;;;13.90;99.90;;;;;;4951729;28;20453;-68
2021/08/26 03:36:52;;;;;;;24.57;22.87;;;14.00;99.90;;;;;;4952554;28;20834;-69
2021/08/26 03:39:19;;;;;;;24.70;22.93;;;14.00;99.90;;;;;;4952269;28;20518;-69
2021/08/26 03:41:45;;;;;;;22.87;21.27;;;14.10;99.90;;;;;;4952351;28;20592;-70
2021/08/26 03:44:13;;;;;;;24.33;22.50;;;14.20;99.90;;;;;;4952379;28;20456;-69
2021/08/26 03:46:40;;;;;;;25.27;23.47;;;14.30;99.90;;;;;;4952337;28;20507;-70
2021/08/26 03:49:07;;;;;;;24.80;22.87;;;14.30;99.90;;;;;;4952586;29;20452;-70
2021/08/26 03:51:34;;;;;;;25.53;23.63;;;14.40;99.90;;;;;;4952295;28;20464;-70
2021/08/26 03:54:01;;;;;;;24.83;22.90;;;14.40;99.90;;;;;;4952289;28;20456;-70
2021/08/26 03:56:27;;;;;;;23.73;21.80;;;14.30;99.90;;;;;;4952133;28;20467;-70
2021/08/26 03:58:54;;;;;;;23.00;21.40;;;14.30;99.90;;;;;;4952255;28;20499;-70
2021/08/26 04:01:22;;;;;;;23.87;21.87;;;14.30;99.90;;;;;;4952255;28;20471;-69
2021/08/26 04:03:49;;;;;;;23.73;21.73;;;14.20;99.90;;;;;;4952052;28;20487;-70
2021/08/26 04:06:16;;;;;;;23.70;22.00;;;14.20;99.90;;;;;;4952136;28;20453;-70
2021/08/26 04:08:42;;;;;;;23.33;21.70;;;14.20;99.90;;;;;;4952023;28;20939;-69
2021/08/26 04:11:09;;;;;;;24.20;22.60;;;14.20;99.90;;;;;;4952335;28;20480;-70
2021/08/26 04:13:36;;;;;;;26.07;23.70;;;14.20;99.90;;;;;;4952191;28;20455;-70
2021/08/26 04:16:03;;;;;;;24.57;22.67;;;14.10;99.90;;;;;;4952043;28;20455;-69
2021/08/26 04:18:31;;;;;;;24.57;22.73;;;14.20;99.90;;;;;;4952043;29;20492;-70
2021/08/26 04:20:57;;;;;;;26.80;24.40;;;14.20;99.90;;;;;;4951870;28;20487;-70
2021/08/26 04:23:24;;;;;;;24.83;22.93;;;14.20;99.90;;;;;;4952198;28;20449;-70
2021/08/26 04:25:51;;;;;;;24.97;22.87;;;14.30;99.90;;;;;;4952149;28;20464;-70
2021/08/26 04:28:18;;;;;;;26.27;24.20;;;14.30;99.90;;;;;;4951968;28;20447;-70
2021/08/26 04:30:44;;;;;;;24.90;22.97;;;14.30;99.90;;;;;;4951814;28;20760;-70
2021/08/26 04:33:11;;;;;;;25.73;23.63;;;14.30;99.90;;;;;;4951867;28;20456;-69
2021/08/26 04:35:39;;;;;;;23.47;21.87;;;14.30;99.90;;;;;;4952104;28;20467;-70
2021/08/26 04:38:06;;;;;;;25.03;23.07;;;14.30;99.90;;;;;;4951978;28;20484;-70
2021/08/26 04:40:33;;;;;;;23.73;21.67;;;14.30;99.90;;;;;;4951825;28;20460;-70
2021/08/26 04:43:00;;;;;;;22.83;21.03;;;14.40;99.90;;;;;;4951878;28;20452;-70
2021/08/26 04:45:26;;;;;;;24.60;22.60;;;14.40;99.90;;;;;;4951921;28;20465;-68
2021/08/26 04:47:53;;;;;;;26.37;24.17;;;14.50;99.90;;;;;;4955271;28;20951;-68
2021/08/26 04:50:20;;;;;;;26.07;23.73;;;14.40;99.90;;;;;;4955127;28;20454;-69
2021/08/26 04:52:48;;;;;;;26.10;24.20;;;14.40;99.90;;;;;;4955048;28;20455;-68
2021/08/26 04:55:15;;;;;;;25.37;23.37;;;14.40;99.90;;;;;;4954976;28;20460;-69
2021/08/26 04:57:42;;;;;;;26.80;24.63;;;14.40;99.90;;;;;;4954889;28;20491;-69
2021/08/26 05:00:09;;;;;;;23.90;22.10;;;14.50;99.90;;;;;;4955111;28;20456;-69
2021/08/26 05:02:36;;;;;;;26.97;24.70;;;14.50;99.90;;;;;;4954816;28;20472;-70
2021/08/26 05:05:03;;;;;;;24.40;22.60;;;14.50;99.90;;;;;;4954920;28;20467;-69
2021/08/26 05:07:30;;;;;;;24.57;22.63;;;14.50;99.90;;;;;;4954812;28;20456;-69
2021/08/26 05:09:58;;;;;;;27.50;25.10;;;14.50;99.90;;;;;;4954683;29;20522;-69
2021/08/26 05:12:25;;;;;;;27.57;25.13;;;14.50;99.90;;;;;;4954679;28;20456;-70
2021/08/26 05:14:52;;;;;;;24.60;22.40;;;14.50;99.90;;;;;;4957719;28;20481;-69
2021/08/26 05:17:18;;;;;;;27.30;25.17;;;14.50;99.90;;;;;;4963371;28;20491;-70
2021/08/26 05:19:45;;;;;;;28.40;25.90;;;14.60;99.90;;;;;;4955091;28;20531;-70
2021/08/26 05:22:12;;;;;;;28.03;25.40;;;14.60;99.90;;;;;;4955040;29;20456;-70
2021/08/26 05:24:38;;;;;;;24.53;22.70;;;14.60;99.90;;;;;;4954735;28;20461;-70
2021/08/26 05:27:07;;;;;;;24.70;22.63;;;14.70;99.90;;;;;;4954905;28;20448;-70
2021/08/26 05:29:33;;;;;;;26.43;24.43;;;14.80;99.90;;;;;;4954698;28;20452;-70
2021/08/26 05:32:10;;;;;;;25.07;22.97;;;14.80;99.90;;;;;;4954621;28;20461;-71
2021/08/26 05:34:37;;;;;;;23.57;21.57;;;14.90;99.90;;;;;;4955022;28;20464;-71
2021/08/26 05:37:04;;;;;;;23.60;21.70;;;15.00;99.90;;;;;;4954550;28;20457;-71
2021/08/26 05:39:30;;;;;;;22.53;20.80;;;15.10;99.90;;;;;;4954369;28;20492;-70
2021/08/26 05:41:57;;;;;;;25.23;22.97;;;15.20;99.90;;;;;;4953176;28;20456;-71
2021/08/26 05:44:25;;;;;;;24.33;22.53;;;15.30;99.90;;;;;;4954574;29;20453;-70
2021/08/26 05:46:52;;;;;;;25.47;23.33;;;15.20;99.90;;;;;;4954289;29;20452;-71
2021/08/26 05:49:18;;;;;;;25.93;23.87;;;15.20;99.90;;;;;;4954445;28;20476;-70
2021/08/26 05:51:45;;;;;;;26.03;24.00;;;15.20;99.90;;;;;;4954295;28;20471;-70
2021/08/26 05:54:12;;;;;;;26.93;24.70;;;15.20;99.90;;;;;;4954285;29;20451;-70
2021/08/26 05:56:38;;;;;;;25.80;23.83;;;15.40;99.90;;;;;;4954047;28;20463;-70
2021/08/26 05:59:05;;;;;;;25.20;23.10;;;15.50;99.90;;;;;;4953639;28;20523;-71
2021/08/26 06:01:33;;;;;;;25.33;23.10;;;15.60;99.90;;;;;;4954065;28;20475;-70
2021/08/26 06:04:00;;;;;;;25.70;23.57;;;15.70;99.90;;;;;;4953891;28;20488;-71
2021/08/26 06:06:27;;;;;;;26.73;24.63;;;15.80;99.90;;;;;;4953582;29;20459;-70
2021/08/26 06:08:53;;;;;;;27.43;24.70;;;15.80;99.90;;;;;;4953502;28;20456;-71
2021/08/26 06:11:20;;;;;;;25.70;23.57;;;15.80;99.90;;;;;;4953700;28;20457;-70
2021/08/26 06:13:47;;;;;;;27.80;25.40;;;15.80;99.90;;;;;;4953591;28;20592;-69
2021/08/26 06:16:13;;;;;;;26.33;24.13;;;15.80;99.90;;;;;;4953325;28;20989;-69
2021/08/26 06:18:41;;;;;;;27.30;25.03;;;15.70;99.90;;;;;;4953702;29;20499;-69
2021/08/26 06:21:10;;;;;;;27.00;24.60;;;15.70;99.90;;;;;;4953494;28;20453;-69
2021/08/26 06:23:37;;;;;;;27.70;25.37;;;15.70;99.90;;;;;;4953735;28;20597;-69
2021/08/26 06:26:03;;;;;;;25.03;23.10;;;15.80;99.90;;;;;;4953383;28;20460;-69
2021/08/26 06:28:30;;;;;;;24.50;22.27;;;15.80;99.90;;;;;;4953302;28;20459;-70
2021/08/26 06:30:57;;;;;;;28.43;25.77;;;15.90;99.90;;;;;;4953174;28;20464;-70
2021/08/26 06:33:23;;;;;;;27.10;24.70;;;16.10;99.90;;;;;;4953578;29;20801;-70
2021/08/26 06:35:51;;;;;;;26.30;24.20;;;16.20;99.90;;;;;;4953229;28;20467;-70
2021/08/26 06:38:18;;;;;;;26.97;24.83;;;16.20;99.90;;;;;;4953214;29;20814;-71
2021/08/26 06:40:45;;;;;;;24.47;22.53;;;16.10;99.90;;;;;;4953123;28;20457;-71
2021/08/26 06:43:12;;;;;;;25.30;23.43;;;16.20;99.90;;;;;;4952804;28;20456;-71
2021/08/26 06:45:39;;;;;;;26.07;24.10;;;16.30;99.90;;;;;;4953036;29;20457;-71
2021/08/26 06:48:06;;;;;;;28.07;25.67;;;16.40;99.90;;;;;;4953416;28;20459;-70
2021/08/26 06:50:32;;;;;;;26.40;24.17;;;16.50;99.90;;;;;;4953763;28;20935;-72
2021/08/26 06:53:00;;;;;;;26.90;24.70;;;16.40;99.90;;;;;;4963705;28;20472;-72
2021/08/26 06:55:28;;;;;;;26.13;23.90;;;16.40;99.90;;;;;;4953214;28;20452;-71
2021/08/26 06:57:55;;;;;;;26.53;24.00;;;16.10;99.90;;;;;;4951384;28;20496;-72
2021/08/26 07:00:22;;;;;;;26.07;23.77;;;16.10;99.90;;;;;;4950005;28;20488;-72
2021/08/26 07:02:49;;;;;;;27.10;24.60;;;16.00;99.90;;;;;;4951979;28;20942;-72
2021/08/26 07:05:15;;;;;;;28.50;25.77;;;16.00;99.90;;;;;;4950724;28;20464;-71
2021/08/26 07:07:42;;;;;;;28.27;24.90;;;16.00;99.90;;;;;;4952365;28;20447;-72
2021/08/26 07:10:11;;;;;;;25.83;23.77;;;16.10;99.90;;;;;;4952382;28;20448;-72
2021/08/26 07:12:37;;;;;;;27.83;25.43;;;16.20;99.90;;;;;;4952507;28;20452;-73
2021/08/26 07:15:05;;;;;;;24.67;22.37;;;16.30;99.90;;;;;;4952325;28;20476;-72
2021/08/26 07:17:32;;;;;;;26.43;24.00;;;16.40;99.90;;;;;;4952303;28;20453;-72
2021/08/26 07:19:59;;;;;;;27.17;24.67;;;16.60;99.90;;;;;;4952279;28;20491;-71
2021/08/26 07:22:25;;;;;;;33.50;24.40;;;16.60;99.90;;;;;;4952665;28;20813;-71
2021/08/26 07:24:52;;;;;;;24.53;22.57;;;16.50;99.90;;;;;;4952473;28;20452;-72
2021/08/26 07:27:20;;;;;;;25.97;23.50;;;16.70;99.90;;;;;;4952380;28;20461;-72
2021/08/26 07:29:47;;;;;;;25.60;23.30;;;16.80;99.90;;;;;;4952121;28;21002;-72
2021/08/26 07:32:14;;;;;;;23.83;21.90;;;17.10;99.90;;;;;;4952173;28;20452;-72
2021/08/26 07:34:40;;;;;;;22.37;20.57;;;17.40;99.90;;;;;;4952339;28;20464;-72
2021/08/26 07:37:07;;;;;;;24.13;22.00;;;17.70;99.90;;;;;;4952195;28;20522;-72
2021/08/26 07:39:34;;;;;;;23.90;22.10;;;17.90;99.90;;;;;;4952057;28;20496;-72
2021/08/26 07:42:00;;;;;;;24.67;22.60;;;18.00;99.90;;;;;;4952037;28;20452;-72
2021/08/26 07:44:28;;;;;;;27.23;23.07;;;17.80;99.90;;;;;;4952082;28;20449;-72
2021/08/26 07:46:55;;;;;;;25.27;23.23;;;17.70;99.90;;;;;;4952112;28;20460;-72
2021/08/26 07:49:22;;;;;;;23.80;22.03;;;17.60;99.90;;;;;;4952187;28;20535;-72
2021/08/26 07:51:49;;;;;;;24.80;23.10;;;17.70;99.90;;;;;;4952082;28;20460;-72
2021/08/26 07:54:15;;;;;;;22.77;21.17;;;17.60;99.90;;;;;;4951916;28;20987;-73
2021/08/26 07:56:42;;;;;;;23.23;21.03;;;17.80;99.90;;;;;;4951950;28;20456;-71
2021/08/26 07:59:09;;;;;;;25.43;23.30;;;17.70;99.90;;;;;;4951919;28;20495;-72
2021/08/26 08:01:37;;;;;;;23.70;22.00;;;17.80;99.90;;;;;;4951694;28;20477;-72
2021/08/26 08:04:04;;;;;;;21.87;20.47;;;17.90;99.90;;;;;;4951806;28;20476;-72
2021/08/26 08:06:30;;;;;;;22.27;20.77;;;18.00;99.90;;;;;;4951873;28;20554;-72
2021/08/26 08:08:57;;;;;;;22.70;21.00;;;18.10;99.90;;;;;;4951821;28;20453;-73
2021/08/26 08:11:24;;;;;;;23.40;21.20;;;18.20;99.90;;;;;;4952059;28;20452;-72
2021/08/26 08:13:51;;;;;;;21.83;20.20;;;18.40;99.90;;;;;;4951787;28;20840;-72
2021/08/26 08:16:18;;;;;;;22.13;20.43;;;18.40;99.90;;;;;;4951728;28;20463;-72
2021/08/26 08:18:47;;;;;;;22.80;20.93;;;18.50;99.90;;;;;;4951801;28;20452;-72
2021/08/26 08:21:13;;;;;;;22.73;21.07;;;18.60;99.90;;;;;;4953246;28;20463;-73
2021/08/26 08:23:40;;;;;;;22.00;20.40;;;18.30;99.90;;;;;;4955514;28;20861;-71
2021/08/26 08:26:10;;;;;;;22.43;20.83;;;18.10;99.90;;;;;;4955737;28;20459;-72
2021/08/26 08:28:37;;;;;;;23.50;21.90;;;17.80;99.90;;;;;;4955507;28;20456;-71
2021/08/26 08:31:04;;;;;;;23.03;21.33;;;17.40;99.90;;;;;;4955222;28;20461;-72
2021/08/26 08:33:31;;;;;;;24.37;22.27;;;17.10;99.90;;;;;;4955148;28;20456;-71
2021/08/26 08:35:59;;;;;;;27.97;25.60;;;17.00;99.90;;;;;;4955388;28;20460;-72
2021/08/26 08:38:26;;;;;;;25.10;23.47;;;16.80;99.90;;;;;;4955204;28;20818;-72
2021/08/26 08:40:52;;;;;;;28.43;26.43;;;16.60;99.90;;;;;;4955240;28;20511;-72
2021/08/26 08:43:19;;;;;;;28.73;26.73;;;16.40;99.90;;;;;;4954976;28;20460;-72
2021/08/26 08:45:46;;;;;;;30.43;28.57;;;16.50;99.90;;;;;;4953397;28;20947;-71
2021/08/26 08:48:13;;;;;;;36.20;33.60;;;16.70;99.90;;;;;;4954773;28;20459;-72
2021/08/26 08:50:42;;;;;;;36.17;33.67;;;16.60;99.90;;;;;;4954808;28;20820;-72
2021/08/26 08:53:14;;;;;;;40.77;37.87;;;16.50;99.90;;;;;;4954908;28;20491;-74
2021/08/26 08:55:43;;;;;;;40.70;37.97;;;16.50;99.90;;;;;;4954818;28;20472;-73
2021/08/26 08:58:10;;;;;;;40.27;37.53;;;16.60;99.90;;;;;;4954840;28;20931;-73
2021/08/26 09:00:37;;;;;;;40.70;38.00;;;16.50;99.90;;;;;;4954539;28;20488;-73
2021/08/26 09:03:05;;;;;;;43.10;40.10;;;16.60;99.90;;;;;;4954321;28;20484;-74
2021/08/26 09:05:54;;;;;;;41.93;39.20;;;16.70;99.90;;;;;;4954137;28;21216;-73
2021/08/26 09:08:23;;;;;;;38.70;36.20;;;17.00;99.90;;;;;;4954760;28;20472;-74
2021/08/26 09:10:53;;;;;;;37.00;34.60;;;17.20;99.90;;;;;;4954568;28;20453;-73
2021/08/26 09:13:29;;;;;;;38.43;35.83;;;17.10;99.90;;;;;;4954499;28;20449;-74
2021/08/26 09:15:56;;;;;;;38.13;35.37;;;17.20;99.90;;;;;;4954449;28;20488;-74
2021/08/26 09:18:23;;;;;;;34.80;32.80;;;17.20;99.90;;;;;;4954548;28;20495;-74
2021/08/26 09:20:52;;;;;;;37.47;35.00;;;17.20;99.90;;;;;;4954315;28;20492;-74
2021/08/26 09:23:19;;;;;;;36.10;33.90;;;17.20;99.90;;;;;;4954178;28;20460;-75
2021/08/26 09:25:47;;;;;;;36.80;34.37;;;17.20;99.90;;;;;;4954220;28;20500;-75
2021/08/26 09:28:31;;;;;;;37.37;34.87;;;17.10;99.90;;;;;;4953980;28;20464;-76
2021/08/26 09:31:12;;;;;;;39.63;36.97;;;16.90;99.90;;;;;;4954269;28;20440;-81
2021/08/26 09:33:54;;;;;;;42.20;39.60;;;16.90;99.90;;;;;;4954535;28;20449;-81
2021/08/26 09:36:23;;;;;;;42.87;40.10;;;16.90;99.90;;;;;;4954337;28;21013;-78
2021/08/26 09:38:52;;;;;;;43.73;40.90;;;17.10;99.90;;;;;;4954141;28;20444;-81
2021/08/26 09:41:39;;;;;;;41.03;38.50;;;17.20;99.90;;;;;;4953925;28;20535;-82
2021/08/26 09:44:08;;;;;;;40.50;37.90;;;17.30;99.90;;;;;;4954089;28;20564;-80
2021/08/26 09:46:35;;;;;;;40.53;37.93;;;17.40;99.90;;;;;;4954020;28;20461;-78
2021/08/26 09:49:03;;;;;;;40.60;38.00;;;17.30;99.90;;;;;;4953660;28;20456;-77
2021/08/26 09:51:30;;;;;;;41.80;39.00;;;17.10;99.90;;;;;;4953596;28;21013;-77
2021/08/26 09:53:56;;;;;;;42.20;39.50;;;17.00;99.90;;;;;;4953824;29;20456;-78
2021/08/26 09:56:24;;;;;;;40.93;38.50;;;16.90;99.90;;;;;;4954090;28;20456;-77
2021/08/26 09:58:54;;;;;;;42.60;39.57;;;17.00;99.90;;;;;;4953726;28;20959;-77
2021/08/26 10:01:23;;;;;;;39.43;37.03;;;17.50;99.90;;;;;;4953378;28;20503;-77
2021/08/26 10:03:51;;;;;;;39.33;36.80;;;17.90;99.90;;;;;;4953700;28;20603;-78
2021/08/26 10:06:19;;;;;;;38.63;36.33;;;18.00;99.90;;;;;;4954049;28;20456;-77
2021/08/26 10:08:48;;;;;;;37.60;35.30;;;17.90;99.90;;;;;;4953811;28;20456;-78
2021/08/26 10:11:18;;;;;;;35.30;33.30;;;17.80;99.90;;;;;;4953950;28;20451;-76
2021/08/26 10:13:46;;;;;;;37.33;34.83;;;17.50;99.90;;;;;;4953963;28;20951;-75
2021/08/26 10:16:13;;;;;;;34.53;32.53;;;17.40;99.90;;;;;;4953724;28;20479;-77
2021/08/26 10:18:41;;;;;;;35.23;33.27;;;17.10;99.90;;;;;;4953769;28;20488;-78
2021/08/26 10:21:08;;;;;;;34.57;32.77;;;16.90;99.90;;;;;;4953666;28;20492;-79
2021/08/26 10:23:38;;;;;;;36.67;34.40;;;16.80;99.90;;;;;;4953453;28;20464;-77
2021/08/26 10:26:07;;;;;;;35.80;33.90;;;16.70;99.90;;;;;;4953458;28;20515;-76
2021/08/26 10:28:36;;;;;;;37.40;35.30;;;16.80;99.90;;;;;;4953259;28;20463;-78
2021/08/26 10:31:29;;;;;;;33.23;31.50;;;16.80;99.90;;;;;;4953139;29;20464;-76
2021/08/26 10:34:10;;;;;;;34.33;32.43;;;16.60;99.90;;;;;;4953368;28;20453;-75
2021/08/26 10:36:44;;;;;;;34.33;32.63;;;16.40;99.90;;;;;;4953443;28;20449;-77
2021/08/26 10:39:31;;;;;;;32.87;31.17;;;16.30;99.90;;;;;;4953277;28;20468;-75
2021/08/26 10:42:18;;;;;;;31.77;30.17;;;16.20;99.90;;;;;;4953123;28;20452;-74
2021/08/26 10:45:02;;;;;;;30.63;29.10;;;16.30;99.90;;;;;;4952493;28;20459;-74
2021/08/26 10:48:03;;;;;;;29.63;28.13;;;16.60;99.90;;;;;;4953295;28;20511;-74
2021/08/26 10:50:35;;;;;;;26.17;24.77;;;17.00;99.90;;;;;;4953067;28;20444;-75
2021/08/26 10:53:05;;;;;;;22.17;21.20;;;17.60;99.90;;;;;;4953515;28;20800;-75
2021/08/26 10:55:34;;;;;;;20.77;19.87;;;17.80;99.90;;;;;;4954062;28;20453;-75
2021/08/26 10:58:34;;;;;;;19.67;18.70;;;18.10;99.90;;;;;;4953463;29;20448;-75
2021/08/26 11:01:02;;;;;;;18.30;17.40;;;18.80;99.90;;;;;;4953000;28;20739;-76
2021/08/26 11:03:57;;;;;;;17.07;16.37;;;19.10;99.90;;;;;;4952795;28;20484;-78
2021/08/26 11:06:46;;;;;;;17.00;16.20;;;20.10;99.90;;;;;;4953405;28;20810;-77
2021/08/26 11:09:34;;;;;;;16.47;15.77;;;21.20;99.90;;;;;;4952898;28;20455;-76
2021/08/26 11:12:21;;;;;;;16.43;15.73;;;23.40;99.90;;;;;;4948216;28;20836;-75
2021/08/26 11:14:49;;;;;;;16.80;15.77;;;25.20;99.90;;;;;;4952216;28;20452;-75
2021/08/26 11:17:26;;;;;;;16.13;15.53;;;25.30;99.90;;;;;;4952490;28;20449;-74
2021/08/26 11:19:53;;;;;;;16.67;15.87;;;26.30;99.10;;;;;;4952584;28;20484;-74
2021/08/26 11:22:21;;;;;;;16.77;16.00;;;26.50;98.30;;;;;;4952292;28;20456;-74
2021/08/26 11:25:00;;;;;;;16.37;15.57;;;27.00;98.70;;;;;;4952288;28;20832;-74
2021/08/26 11:27:32;;;;;;;17.30;16.50;;;26.20;97.70;;;;;;4952233;28;20541;-73
2021/08/26 11:30:20;;;;;;;17.40;16.60;;;25.40;97.30;;;;;;4952135;28;20453;-73
2021/08/26 11:32:47;;;;;;;17.83;16.97;;;25.10;98.10;;;;;;4952469;28;21006;-72
2021/08/26 11:35:14;;;;;;;17.27;16.47;;;23.70;98.80;;;;;;4952054;28;20969;-72
2021/08/26 11:37:42;;;;;;;17.50;16.60;;;23.10;99.70;;;;;;4952264;28;20480;-72
2021/08/26 11:40:11;;;;;;;17.67;16.60;;;22.80;99.90;;;;;;4952122;28;20484;-73
2021/08/26 11:42:40;;;;;;;18.17;17.07;;;22.40;99.60;;;;;;4950392;28;20452;-72
2021/08/26 11:45:11;;;;;;;18.73;17.50;;;21.90;99.70;;;;;;4951374;28;20453;-71
2021/08/26 11:47:39;;;;;;;18.60;17.50;;;21.70;99.90;;;;;;4952122;28;20834;-72
2021/08/26 11:50:11;;;;;;;19.13;18.03;;;21.30;99.90;;;;;;4952023;28;20453;-71
2021/08/26 11:52:39;;;;;;;18.67;17.47;;;21.10;99.90;;;;;;4952019;28;20939;-72
2021/08/26 11:55:08;;;;;;;18.93;17.63;;;20.90;99.90;;;;;;4951930;28;20452;-71
2021/08/26 11:57:35;;;;;;;19.10;17.90;;;20.80;99.90;;;;;;4955633;28;20452;-71
2021/08/26 12:00:10;;;;;;;17.90;16.80;;;20.40;99.90;;;;;;4955711;28;20891;-71
2021/08/26 12:02:37;;;;;;;18.97;17.30;;;20.30;99.90;;;;;;4955686;28;20480;-71
2021/08/26 12:05:10;;;;;;;18.93;17.63;;;20.20;99.90;;;;;;4955450;28;20488;-72
2021/08/26 12:07:41;;;;;;;18.67;17.47;;;20.00;99.90;;;;;;4955588;28;20456;-71
2021/08/26 12:10:14;;;;;;;17.53;16.43;;;20.00;99.90;;;;;;4955876;28;20453;-71
2021/08/26 12:12:51;;;;;;;18.43;17.40;;;19.80;99.90;;;;;;4955612;28;20452;-71
2021/08/26 12:15:24;;;;;;;18.57;17.47;;;19.70;99.90;;;;;;4955403;28;20467;-71
2021/08/26 12:17:51;;;;;;;17.50;16.50;;;19.50;99.90;;;;;;4955795;28;20467;-71
2021/08/26 12:20:18;;;;;;;16.70;15.80;;;19.50;99.90;;;;;;4955354;28;21006;-71
2021/08/26 12:22:48;;;;;;;17.03;16.03;;;19.60;99.90;;;;;;4955421;28;20464;-72
2021/08/26 12:25:25;;;;;;;17.13;16.00;;;20.00;99.90;;;;;;4953479;28;20854;-71
2021/08/26 12:27:55;;;;;;;17.97;16.87;;;20.30;99.90;;;;;;4955526;28;20458;-71
2021/08/26 12:30:33;;;;;;;17.20;16.30;;;20.60;99.90;;;;;;4955460;28;20460;-72
2021/08/26 12:33:12;;;;;;;17.73;16.37;;;20.80;99.90;;;;;;4955553;28;20460;-73
2021/08/26 12:35:50;;;;;;;17.50;16.50;;;21.20;99.90;;;;;;4955692;28;20493;-72
2021/08/26 12:38:30;;;;;;;17.40;16.37;;;21.90;99.90;;;;;;4955477;28;20458;-71
2021/08/26 12:41:00;;;;;;;17.60;16.60;;;23.10;99.00;;;;;;4955120;28;20487;-71
2021/08/26 12:43:39;;;;;;;16.60;15.70;;;24.10;97.20;;;;;;4955212;28;20459;-71